createdAt,value
2022-09-07T00:00:08.875Z,18.26
2022-09-07T00:05:10.634Z,18.31
2022-09-07T00:10:12.270Z,18.26
2022-09-07T00:15:13.866Z,18.25
2022-09-07T00:20:15.620Z,18.16
2022-09-07T00:25:17.336Z,18.07
2022-09-07T00:30:19.053Z,17.62
2022-09-07T00:35:20.839Z,17.63
2022-09-07T00:40:22.527Z,17.77
2022-09-07T00:45:24.391Z,17.90
2022-09-07T00:50:57.538Z,17.85
2022-09-07T00:55:59.916Z,17.85
2022-09-07T01:01:01.819Z,17.88
2022-09-07T01:06:13.530Z,17.87
2022-09-07T01:11:18.001Z,18.00
2022-09-07T01:16:35.848Z,17.34
2022-09-07T01:22:12.796Z,16.74
2022-09-07T01:27:38.853Z,16.37
2022-09-07T01:32:46.511Z,16.31
2022-09-07T01:37:48.064Z,16.56
2022-09-07T01:43:04.512Z,16.58
2022-09-07T01:48:09.113Z,16.84
2022-09-07T01:53:18.029Z,17.04
2022-09-07T01:58:32.768Z,17.16
2022-09-07T02:04:00.459Z,16.88
2022-09-07T02:09:12.996Z,16.83
2022-09-07T02:14:25.598Z,16.83
2022-09-07T02:19:33.777Z,17.00
2022-09-07T02:24:43.119Z,16.88
2022-09-07T02:29:44.960Z,16.91
2022-09-07T02:34:46.698Z,16.84
2022-09-07T02:39:49.429Z,16.85
2022-09-07T02:44:51.181Z,16.74
2022-09-07T02:50:14.038Z,16.76
2022-09-07T02:55:44.741Z,16.78
2022-09-07T03:01:24.021Z,16.80
2022-09-07T03:06:25.713Z,16.89
2022-09-07T03:11:29.154Z,16.96
2022-09-07T03:16:30.838Z,16.66
2022-09-07T03:21:32.666Z,16.66
2022-09-07T03:26:39.009Z,16.71
2022-09-07T03:31:40.935Z,16.52
2022-09-07T03:36:43.165Z,16.53
2022-09-07T03:41:44.800Z,16.43
2022-09-07T03:46:46.578Z,16.50
2022-09-07T03:51:48.424Z,16.41
2022-09-07T03:56:50.108Z,16.43
2022-09-07T04:01:52.065Z,16.29
2022-09-07T04:06:53.814Z,16.23
2022-09-07T04:11:55.515Z,16.09
2022-09-07T04:16:57.454Z,16.14
2022-09-07T04:21:59.208Z,16.36
2022-09-07T04:27:02.146Z,16.39
2022-09-07T04:32:03.849Z,16.55
2022-09-07T04:37:05.521Z,16.70
2022-09-07T04:42:07.253Z,16.78
2022-09-07T04:47:09.396Z,16.85
2022-09-07T04:52:11.033Z,16.86
2022-09-07T04:57:12.685Z,16.88
2022-09-07T05:02:14.428Z,16.83
2022-09-07T05:07:16.197Z,16.82
2022-09-07T05:12:17.906Z,16.89
2022-09-07T05:17:19.829Z,16.94
2022-09-07T05:22:22.411Z,16.86
2022-09-07T05:27:24.175Z,16.73
2022-09-07T05:32:25.934Z,16.71
2022-09-07T05:37:27.591Z,16.79
2022-09-07T05:42:29.241Z,16.88
2022-09-07T05:47:31.276Z,16.90
2022-09-07T05:52:33.353Z,16.92
2022-09-07T05:57:35.049Z,17.11
2022-09-07T06:02:39.809Z,17.34
2022-09-07T06:07:41.961Z,17.68
2022-09-07T06:12:48.991Z,17.83
2022-09-07T06:17:51.186Z,18.38
2022-09-07T06:22:52.931Z,18.78
2022-09-07T06:27:54.572Z,18.88
2022-09-07T06:32:56.199Z,18.95
2022-09-07T06:37:58.277Z,18.98
2022-09-07T06:42:59.985Z,18.80
2022-09-07T06:48:01.657Z,18.67
2022-09-07T06:58:25.951Z,18.97
2022-09-07T07:03:28.592Z,19.09
2022-09-07T07:08:30.850Z,19.30
2022-09-07T07:13:32.574Z,19.46
2022-09-07T07:18:35.106Z,19.50
2022-09-07T07:23:37.488Z,19.47
2022-09-07T07:34:05.381Z,19.74
2022-09-07T07:39:07.171Z,20.55
2022-09-07T07:44:09.454Z,20.78
2022-09-07T07:49:11.048Z,21.12
2022-09-07T07:54:12.692Z,21.53
2022-09-07T07:59:15.890Z,21.84
2022-09-07T08:04:18.069Z,22.09
2022-09-07T08:09:19.759Z,21.89
2022-09-07T08:14:22.294Z,22.21
2022-09-07T08:19:24.205Z,22.53
2022-09-07T08:24:26.603Z,22.89
2022-09-07T08:29:32.639Z,23.05
2022-09-07T08:34:37.317Z,23.07
2022-09-07T08:39:39.009Z,22.29
2022-09-07T08:44:51.113Z,22.30
2022-09-07T08:50:10.080Z,22.79
2022-09-07T08:55:21.716Z,22.92
2022-09-07T09:00:23.357Z,22.98
2022-09-07T09:05:28.401Z,23.18
2022-09-07T09:10:41.832Z,23.37
2022-09-07T09:16:05.506Z,23.66
2022-09-07T09:21:14.544Z,24.08
2022-09-07T09:26:26.245Z,24.72
2022-09-07T09:31:36.894Z,25.58
2022-09-07T09:36:44.640Z,25.55
2022-09-07T09:41:47.555Z,25.53
2022-09-07T09:52:29.824Z,25.64
2022-09-07T10:08:58.434Z,25.81
2022-09-07T10:14:00.614Z,25.96
2022-09-07T10:19:03.348Z,26.10
2022-09-07T10:24:05.125Z,26.34
2022-09-07T10:29:08.730Z,26.10
2022-09-07T10:34:33.583Z,26.09
2022-09-07T10:39:39.750Z,25.98
2022-09-07T10:45:05.600Z,25.76
2022-09-07T10:50:30.233Z,25.58
2022-09-07T10:55:36.623Z,25.55
2022-09-07T11:01:02.570Z,25.33
2022-09-07T11:06:23.229Z,25.39
2022-09-07T11:16:58.541Z,25.67
2022-09-07T11:22:16.180Z,25.53
2022-09-07T11:27:34.313Z,26.04
2022-09-07T11:32:38.617Z,25.99
2022-09-07T11:37:46.601Z,26.12
2022-09-07T11:42:59.878Z,26.25
2022-09-07T11:48:21.941Z,26.12
2022-09-07T11:53:29.262Z,26.05
2022-09-07T11:58:49.134Z,26.13
2022-09-07T12:04:14.628Z,26.04
2022-09-07T12:09:49.627Z,25.93
2022-09-07T12:15:19.741Z,25.95
2022-09-07T12:20:28.274Z,25.98
2022-09-07T12:25:31.041Z,25.92
2022-09-07T12:30:36.771Z,26.09
2022-09-07T12:35:43.872Z,26.16
2022-09-07T12:40:59.579Z,26.15
2022-09-07T12:46:02.288Z,26.14
2022-09-07T13:02:46.116Z,26.57
2022-09-07T13:08:09.894Z,26.46
2022-09-07T13:13:14.649Z,26.40
2022-09-07T13:18:28.737Z,26.27
2022-09-07T13:23:31.392Z,26.25
2022-09-07T13:29:03.164Z,26.14
2022-09-07T13:34:38.879Z,26.32
2022-09-07T13:39:47.487Z,26.54
2022-09-07T13:44:55.696Z,26.64
2022-09-07T13:50:22.915Z,26.64
2022-09-07T13:55:35.797Z,26.53
2022-09-07T14:00:53.041Z,26.52
2022-09-07T14:06:15.044Z,26.50
2022-09-07T14:11:23.553Z,26.92
2022-09-07T14:16:26.718Z,27.02
2022-09-07T14:21:28.488Z,27.28
2022-09-07T14:26:36.399Z,27.52
2022-09-07T14:31:46.748Z,27.62
2022-09-07T14:36:50.727Z,27.60
2022-09-07T14:41:57.690Z,27.52
2022-09-07T14:47:08.713Z,27.36
2022-09-07T14:58:33.222Z,27.15
2022-09-07T15:03:41.179Z,27.10
2022-09-07T15:08:47.276Z,26.95
2022-09-07T15:13:58.132Z,26.98
2022-09-07T15:19:16.141Z,26.93
2022-09-07T15:24:17.796Z,26.93
2022-09-07T15:29:21.129Z,26.99
2022-09-07T15:34:32.454Z,26.95
2022-09-07T15:39:36.116Z,26.92
2022-09-07T15:44:38.146Z,26.71
2022-09-07T15:49:47.466Z,26.58
2022-09-07T15:54:51.159Z,26.31
2022-09-07T15:59:53.005Z,25.99
2022-09-07T16:05:04.778Z,25.68
2022-09-07T16:10:07.468Z,25.53
2022-09-07T16:15:12.646Z,25.45
2022-09-07T16:20:14.618Z,25.52
2022-09-07T16:25:16.374Z,25.62
2022-09-07T16:30:19.138Z,25.51
2022-09-07T16:35:20.950Z,25.37
2022-09-07T16:40:25.623Z,25.00
2022-09-07T16:50:58.920Z,24.63
2022-09-07T16:56:06.075Z,24.43
2022-09-07T17:01:15.171Z,24.26
2022-09-07T17:06:18.493Z,24.09
2022-09-07T17:11:24.162Z,24.07
2022-09-07T17:16:32.422Z,24.02
2022-09-07T17:21:39.262Z,23.99
2022-09-07T17:26:42.184Z,23.97
2022-09-07T17:37:11.249Z,24.06
2022-09-07T17:42:14.129Z,24.03
2022-09-07T17:47:15.950Z,23.81
2022-09-07T17:52:17.988Z,23.59
2022-09-07T17:57:20.684Z,23.33
2022-09-07T18:02:28.616Z,23.04
2022-09-07T18:07:32.884Z,22.79
2022-09-07T18:12:35.893Z,22.54
2022-09-07T18:17:42.491Z,22.27
2022-09-07T18:22:44.854Z,22.09
2022-09-07T18:29:03.093Z,21.92
2022-09-07T18:33:09.559Z,21.70
2022-09-07T18:38:11.841Z,21.52
2022-09-07T18:43:13.546Z,21.36
2022-09-07T18:48:15.253Z,21.17
2022-09-07T18:53:17.083Z,21.00
2022-09-07T18:58:19.005Z,20.87
2022-09-07T19:03:21.466Z,20.76
2022-09-07T19:08:23.157Z,20.62
2022-09-07T19:13:24.865Z,20.52
2022-09-07T19:18:26.530Z,20.40
2022-09-07T19:23:28.193Z,20.31
2022-09-07T19:28:30.399Z,20.10
2022-09-07T19:33:37.893Z,19.70
2022-09-07T19:38:39.933Z,19.33
2022-09-07T19:43:41.683Z,19.24
2022-09-07T19:48:44.383Z,19.13
2022-09-07T19:53:47.182Z,19.10
2022-09-07T19:58:49.834Z,19.05
2022-09-07T20:04:25.989Z,18.99
2022-09-07T20:09:27.780Z,19.01
2022-09-07T20:14:29.539Z,18.98
2022-09-07T20:19:31.274Z,18.93
2022-09-07T20:24:34.547Z,18.91
2022-09-07T20:29:36.289Z,18.90
2022-09-07T20:34:38.009Z,18.85
2022-09-07T20:40:14.475Z,18.73
2022-09-07T20:45:16.347Z,18.66
2022-09-07T20:50:18.064Z,18.33
2022-09-07T20:55:20.781Z,18.01
2022-09-07T21:00:23.145Z,18.04
2022-09-07T21:05:24.916Z,18.24
2022-09-07T21:10:27.068Z,18.25
2022-09-07T21:15:29.431Z,18.22
2022-09-07T21:20:32.025Z,18.25
2022-09-07T21:25:33.764Z,18.20
2022-09-07T21:30:35.451Z,18.22
2022-09-07T21:35:37.102Z,18.21
2022-09-07T21:40:41.178Z,18.10
2022-09-07T21:45:42.889Z,18.03
2022-09-07T21:50:46.848Z,17.96
2022-09-07T21:55:59.429Z,17.80
2022-09-07T22:01:11.052Z,17.58
2022-09-07T22:06:13.501Z,17.66
2022-09-07T22:17:46.215Z,17.56
2022-09-07T22:22:48.287Z,17.56
2022-09-07T22:27:50.164Z,17.46
2022-09-07T22:32:52.005Z,17.39
2022-09-07T22:37:53.665Z,17.39
2022-09-07T22:42:55.303Z,17.34
2022-09-07T22:47:57.465Z,17.32
2022-09-07T22:52:59.257Z,17.37
2022-09-07T22:58:00.940Z,17.30
2022-09-07T23:03:03.936Z,17.33
2022-09-07T23:08:06.026Z,17.37
2022-09-07T23:13:09.150Z,17.32
2022-09-07T23:18:19.475Z,17.32
2022-09-07T23:23:21.135Z,17.31
2022-09-07T23:28:22.864Z,17.12
2022-09-07T23:33:26.289Z,17.21
2022-09-07T23:38:28.654Z,17.27
2022-09-07T23:43:31.487Z,17.27
2022-09-07T23:48:33.202Z,17.27
2022-09-07T23:53:35.125Z,17.19
2022-09-07T23:58:36.892Z,17.13
